Time;durP1;ratioP1;P1;durP2;ratioP2;P2;SDS_P1;SDS_P2;PMS_P1;PMS_P2;Temp;Humidity;BMP_temperature;BMP_pressure;BME280_temperature;BME280_humidity;BME280_pressure;Samples;Min_cycle;Max_cycle;Signal;HPM_P1;HPM_P2
2021/07/06 00:00:09;;;;;;;3.50;1.90;;;20.50;92.00;;;;;;5094332;28;20423;-69
2021/07/06 00:02:36;;;;;;;1.40;1.20;;;20.50;91.90;;;;;;5094280;28;20453;-69
2021/07/06 00:05:03;;;;;;;1.03;0.97;;;20.50;91.80;;;;;;5094120;28;20479;-69
2021/07/06 00:07:30;;;;;;;3.73;1.50;;;20.50;91.90;;;;;;5094179;28;20853;-69
2021/07/06 00:09:59;;;;;;;1.63;0.90;;;20.60;91.70;;;;;;5094074;28;20451;-69
2021/07/06 00:12:26;;;;;;;2.33;1.10;;;20.60;91.50;;;;;;5094110;28;20451;-69
2021/07/06 00:14:53;;;;;;;2.77;1.07;;;20.60;91.30;;;;;;5093691;28;20444;-70
2021/07/06 00:17:20;;;;;;;3.57;1.23;;;20.50;91.10;;;;;;5093986;28;20471;-69
2021/07/06 00:19:47;;;;;;;4.07;1.20;;;20.40;91.10;;;;;;5093989;28;20443;-69
2021/07/06 00:22:14;;;;;;;1.10;0.90;;;20.40;91.40;;;;;;5093917;28;20447;-69
2021/07/06 00:24:41;;;;;;;1.97;1.23;;;20.50;91.30;;;;;;5093139;28;20443;-69
2021/07/06 00:27:09;;;;;;;1.80;0.97;;;20.50;91.20;;;;;;5093395;28;21011;-69
2021/07/06 00:29:36;;;;;;;2.07;1.20;;;20.50;91.50;;;;;;5093886;28;20432;-69
2021/07/06 00:32:03;;;;;;;7.03;1.00;;;20.50;91.50;;;;;;5093824;28;20849;-69
2021/07/06 00:34:29;;;;;;;1.67;0.87;;;20.50;91.30;;;;;;5094597;28;20442;-69
2021/07/06 00:36:56;;;;;;;2.50;1.00;;;20.50;91.30;;;;;;5093694;28;20916;-70
2021/07/06 00:39:23;;;;;;;3.83;1.30;;;20.50;91.30;;;;;;5093610;28;20470;-70
2021/07/06 00:41:50;;;;;;;2.70;1.40;;;20.50;91.60;;;;;;5093700;28;20446;-70
2021/07/06 00:44:20;;;;;;;2.33;1.10;;;20.60;91.90;;;;;;5093614;28;20451;-70
2021/07/06 00:46:47;;;;;;;4.10;1.40;;;20.60;92.20;;;;;;5093594;28;20467;-70
2021/07/06 00:49:14;;;;;;;5.43;1.20;;;20.60;92.30;;;;;;5093507;28;20475;-70
2021/07/06 00:51:41;;;;;;;2.93;1.20;;;20.60;92.30;;;;;;5093571;28;20447;-70
2021/07/06 00:54:08;;;;;;;1.10;1.07;;;20.60;92.50;;;;;;5093556;28;20448;-70
2021/07/06 00:56:35;;;;;;;4.83;1.07;;;20.60;92.50;;;;;;5093518;28;20447;-70
2021/07/06 00:59:02;;;;;;;4.30;1.30;;;20.70;92.30;;;;;;5093457;28;20474;-70
2021/07/06 01:01:31;;;;;;;1.50;0.90;;;20.70;92.30;;;;;;5093503;28;20518;-70
2021/07/06 01:03:58;;;;;;;2.20;1.10;;;20.70;92.20;;;;;;5093152;28;20872;-70
2021/07/06 01:06:25;;;;;;;1.90;1.50;;;20.70;92.20;;;;;;5093356;28;20479;-70
2021/07/06 01:08:52;;;;;;;3.57;1.13;;;20.70;92.30;;;;;;5093208;28;21000;-70
2021/07/06 01:11:19;;;;;;;4.90;1.20;;;20.80;92.40;;;;;;5093362;28;20439;-70
2021/07/06 01:13:46;;;;;;;2.40;1.07;;;20.80;92.30;;;;;;5093336;28;20448;-70
2021/07/06 01:16:12;;;;;;;4.33;1.20;;;20.80;92.30;;;;;;5093025;28;20443;-70
2021/07/06 01:18:41;;;;;;;1.37;1.23;;;20.80;92.20;;;;;;5093266;28;20479;-70
2021/07/06 01:21:07;;;;;;;3.77;1.30;;;20.90;92.20;;;;;;5092954;28;20946;-70
2021/07/06 01:23:35;;;;;;;4.00;1.60;;;20.90;92.20;;;;;;5093246;28;20451;-70
2021/07/06 01:26:05;;;;;;;1.30;1.17;;;20.90;92.10;;;;;;5093172;28;20475;-70
2021/07/06 01:28:33;;;;;;;3.03;1.60;;;20.90;92.10;;;;;;5094256;28;20448;-70
2021/07/06 01:31:00;;;;;;;3.90;1.63;;;20.90;92.00;;;;;;5092885;28;20967;-70
2021/07/06 01:33:28;;;;;;;2.53;1.40;;;20.90;92.00;;;;;;5093145;28;20461;-70
2021/07/06 01:35:59;;;;;;;3.90;1.67;;;20.90;92.10;;;;;;5095763;28;20479;-70
2021/07/06 01:38:27;;;;;;;4.23;1.47;;;20.90;92.00;;;;;;5096965;28;20475;-70
2021/07/06 01:40:55;;;;;;;2.53;1.40;;;20.80;91.80;;;;;;5096987;28;20805;-70
2021/07/06 01:43:22;;;;;;;2.30;1.30;;;20.80;91.70;;;;;;5096969;28;20455;-70
2021/07/06 01:45:48;;;;;;;5.03;1.80;;;20.80;91.80;;;;;;5096831;28;20487;-70
2021/07/06 01:48:15;;;;;;;2.60;1.27;;;20.70;91.80;;;;;;5096777;28;20471;-70
2021/07/06 01:50:44;;;;;;;6.30;1.70;;;20.70;91.80;;;;;;5096757;28;20454;-70
2021/07/06 01:53:14;;;;;;;2.27;1.33;;;20.70;91.90;;;;;;5096725;28;20448;-70
2021/07/06 01:55:42;;;;;;;2.60;1.53;;;20.70;91.90;;;;;;5096681;28;20444;-70
2021/07/06 01:58:12;;;;;;;5.63;1.63;;;20.70;91.90;;;;;;5096605;28;20468;-70
2021/07/06 02:00:41;;;;;;;3.77;1.80;;;20.60;92.00;;;;;;5096662;28;20822;-70
2021/07/06 02:03:10;;;;;;;3.23;1.80;;;20.70;92.10;;;;;;5096492;28;20447;-70
2021/07/06 02:05:39;;;;;;;3.67;1.73;;;20.60;92.10;;;;;;5096094;28;20990;-70
2021/07/06 02:08:06;;;;;;;3.83;1.50;;;20.60;91.90;;;;;;5096102;28;20533;-70
2021/07/06 02:10:34;;;;;;;4.13;1.70;;;20.60;92.00;;;;;;5096438;28;20818;-70
2021/07/06 02:13:02;;;;;;;4.07;1.80;;;20.60;92.10;;;;;;5096346;28;20455;-70
2021/07/06 02:15:31;;;;;;;5.77;2.00;;;20.50;92.00;;;;;;5096335;28;20440;-70
2021/07/06 02:17:58;;;;;;;5.40;1.90;;;20.50;92.00;;;;;;5096177;28;20472;-69
2021/07/06 02:20:25;;;;;;;5.17;1.87;;;20.50;91.80;;;;;;5096220;28;20450;-69
2021/07/06 02:22:53;;;;;;;2.00;1.30;;;20.50;91.90;;;;;;5096114;28;20480;-69
2021/07/06 02:25:20;;;;;;;1.60;1.30;;;20.50;91.90;;;;;;5096087;28;20446;-69
2021/07/06 02:27:48;;;;;;;7.37;1.60;;;20.50;91.80;;;;;;5095933;28;20486;-69
2021/07/06 02:30:22;;;;;;;2.90;1.50;;;20.50;91.80;;;;;;5095972;28;20458;-69
2021/07/06 02:32:52;;;;;;;4.13;2.23;;;20.50;91.50;;;;;;5095961;28;20428;-69
2021/07/06 02:35:19;;;;;;;1.97;1.70;;;20.50;91.50;;;;;;5095957;28;20448;-69
2021/07/06 02:37:47;;;;;;;4.73;2.10;;;20.50;91.40;;;;;;5095861;28;20467;-70
2021/07/06 02:40:16;;;;;;;2.60;1.90;;;20.40;91.50;;;;;;5095484;28;20957;-70
2021/07/06 02:42:43;;;;;;;8.27;1.93;;;20.50;91.50;;;;;;5095743;28;20454;-70
2021/07/06 02:45:12;;;;;;;6.27;2.20;;;20.50;91.30;;;;;;5095703;28;20450;-70
2021/07/06 02:47:39;;;;;;;9.90;2.23;;;20.40;91.30;;;;;;5094650;28;20488;-70
2021/07/06 02:50:09;;;;;;;4.50;2.07;;;20.40;91.40;;;;;;5095602;28;20452;-70
2021/07/06 02:52:36;;;;;;;3.23;2.30;;;20.30;91.20;;;;;;5095533;28;20454;-70
2021/07/06 02:55:05;;;;;;;3.80;1.80;;;20.30;91.50;;;;;;5095489;28;20448;-70
2021/07/06 02:57:38;;;;;;;2.20;2.00;;;20.30;91.40;;;;;;5095325;28;20825;-70
2021/07/06 03:00:11;;;;;;;2.33;1.70;;;20.30;91.50;;;;;;5095490;28;20460;-70
2021/07/06 03:02:39;;;;;;;2.23;2.03;;;20.30;91.40;;;;;;5095093;28;20444;-70
2021/07/06 03:05:09;;;;;;;8.50;1.80;;;20.30;91.40;;;;;;5095278;28;20459;-70
2021/07/06 03:07:36;;;;;;;4.03;2.07;;;20.30;91.50;;;;;;5094876;28;20483;-70
2021/07/06 03:10:04;;;;;;;6.07;2.17;;;20.30;91.60;;;;;;5095222;28;20452;-70
2021/07/06 03:12:31;;;;;;;2.73;1.70;;;20.30;91.50;;;;;;5095205;28;20444;-70
2021/07/06 03:14:57;;;;;;;3.60;2.07;;;20.30;91.20;;;;;;5095127;28;20816;-70
2021/07/06 03:17:24;;;;;;;3.00;1.97;;;20.30;91.00;;;;;;5095029;28;20439;-70
2021/07/06 03:19:51;;;;;;;5.00;1.87;;;20.30;91.10;;;;;;5094718;28;20956;-70
2021/07/06 03:22:19;;;;;;;2.70;1.70;;;20.30;90.80;;;;;;5094960;28;20444;-70
2021/07/06 03:24:46;;;;;;;1.50;1.33;;;20.20;90.50;;;;;;5094916;28;20862;-70
2021/07/06 03:27:13;;;;;;;1.60;1.50;;;20.20;90.60;;;;;;5094720;28;20475;-70
2021/07/06 03:29:39;;;;;;;6.10;2.17;;;20.20;90.90;;;;;;5094873;28;20455;-69
2021/07/06 03:32:07;;;;;;;5.03;2.10;;;20.20;90.90;;;;;;5094759;28;20447;-69
2021/07/06 03:34:33;;;;;;;4.60;1.90;;;20.30;90.90;;;;;;5094861;28;20440;-69
2021/07/06 03:37:02;;;;;;;4.97;2.00;;;20.30;91.10;;;;;;5094657;28;20472;-69
2021/07/06 03:39:30;;;;;;;2.87;2.37;;;20.30;91.30;;;;;;5094272;28;20840;-69
2021/07/06 03:41:57;;;;;;;5.87;1.77;;;20.40;91.20;;;;;;5094608;28;20450;-69
2021/07/06 03:44:23;;;;;;;3.23;2.10;;;20.40;91.00;;;;;;5094582;28;20810;-69
2021/07/06 03:46:50;;;;;;;2.20;1.20;;;20.30;90.40;;;;;;5094415;28;20490;-70
2021/07/06 03:49:17;;;;;;;4.23;1.43;;;20.30;90.50;;;;;;5094408;28;20472;-70
2021/07/06 03:51:44;;;;;;;3.60;1.10;;;20.30;90.60;;;;;;5094458;28;20446;-70
2021/07/06 03:54:10;;;;;;;2.67;1.33;;;20.30;90.00;;;;;;5094157;28;20424;-70
2021/07/06 03:56:38;;;;;;;3.33;1.63;;;20.30;90.20;;;;;;5094098;28;20933;-70
2021/07/06 03:59:05;;;;;;;4.33;1.53;;;20.20;90.00;;;;;;5094209;28;20467;-70
2021/07/06 04:01:32;;;;;;;3.47;1.30;;;20.20;90.40;;;;;;5094234;28;20459;-69
2021/07/06 04:03:58;;;;;;;2.53;1.50;;;20.20;90.30;;;;;;5094295;28;20455;-70
2021/07/06 04:06:25;;;;;;;2.20;1.17;;;20.20;90.60;;;;;;5094215;28;20491;-69
2021/07/06 04:08:52;;;;;;;2.60;1.03;;;20.20;90.40;;;;;;5093801;28;20476;-69
2021/07/06 04:11:18;;;;;;;3.10;1.13;;;20.20;89.40;;;;;;5094088;28;20799;-69
2021/07/06 04:13:47;;;;;;;1.73;1.20;;;20.30;89.50;;;;;;5094151;28;20518;-69
2021/07/06 04:16:14;;;;;;;3.53;1.10;;;20.20;90.10;;;;;;5093819;28;20959;-69
2021/07/06 04:18:41;;;;;;;3.70;1.90;;;20.20;89.50;;;;;;5094012;28;20464;-69
2021/07/06 04:21:08;;;;;;;3.97;1.60;;;20.20;89.50;;;;;;5093700;28;20448;-69
2021/07/06 04:23:35;;;;;;;5.10;1.53;;;20.30;89.70;;;;;;5093991;28;20451;-69
2021/07/06 04:26:01;;;;;;;2.83;1.80;;;20.30;89.80;;;;;;5093892;28;20447;-68
2021/07/06 04:28:28;;;;;;;3.40;1.80;;;20.30;90.00;;;;;;5093744;28;20455;-68
2021/07/06 04:30:57;;;;;;;3.40;1.70;;;20.30;90.20;;;;;;5093892;28;20444;-68
2021/07/06 04:33:24;;;;;;;2.37;1.80;;;20.40;90.50;;;;;;5093790;28;20451;-68
2021/07/06 04:35:51;;;;;;;5.43;2.20;;;20.50;90.50;;;;;;5093729;28;20794;-68
2021/07/06 04:38:18;;;;;;;4.70;2.00;;;20.50;90.70;;;;;;5093578;28;20472;-68
2021/07/06 04:40:46;;;;;;;4.33;2.43;;;20.50;90.50;;;;;;5093690;28;20479;-68
2021/07/06 04:43:13;;;;;;;4.30;1.87;;;20.40;90.20;;;;;;5093829;28;20443;-68
2021/07/06 04:45:40;;;;;;;3.63;1.90;;;20.30;90.40;;;;;;5093623;28;20455;-68
2021/07/06 04:48:10;;;;;;;4.00;1.77;;;20.30;90.70;;;;;;5093466;28;20498;-68
2021/07/06 04:50:39;;;;;;;2.73;1.70;;;20.30;90.50;;;;;;5093666;28;20468;-68
2021/07/06 04:53:06;;;;;;;2.10;1.30;;;20.30;90.40;;;;;;5093645;28;20432;-68
2021/07/06 04:55:35;;;;;;;2.67;1.53;;;20.20;90.10;;;;;;5093632;28;20471;-68
2021/07/06 04:58:02;;;;;;;4.60;1.50;;;20.20;90.40;;;;;;5093530;28;20471;-68
2021/07/06 05:00:28;;;;;;;4.83;1.37;;;20.20;90.30;;;;;;5093248;28;20950;-68
2021/07/06 05:02:55;;;;;;;2.57;1.57;;;20.10;90.50;;;;;;5093628;28;20796;-68
2021/07/06 05:05:23;;;;;;;1.43;1.30;;;20.10;90.90;;;;;;5093491;28;20448;-67
2021/07/06 05:07:57;;;;;;;2.83;1.30;;;20.10;91.50;;;;;;5092969;28;20487;-67
2021/07/06 05:10:24;;;;;;;5.33;1.70;;;20.00;92.10;;;;;;5095747;28;20466;-67
2021/07/06 05:12:51;;;;;;;8.60;2.07;;;20.00;92.30;;;;;;5097182;28;20941;-68
2021/07/06 05:15:17;;;;;;;2.10;1.47;;;19.90;92.50;;;;;;5097483;28;20450;-67
2021/07/06 05:17:44;;;;;;;4.03;2.10;;;19.90;92.50;;;;;;5097386;28;20475;-68
2021/07/06 05:20:12;;;;;;;7.47;1.63;;;19.90;92.90;;;;;;5097495;28;20459;-68
2021/07/06 05:22:40;;;;;;;3.70;1.80;;;19.90;93.00;;;;;;5097458;28;20443;-68
2021/07/06 05:25:08;;;;;;;4.70;1.97;;;19.90;93.00;;;;;;5097417;28;20451;-68
2021/07/06 05:27:35;;;;;;;6.20;2.00;;;19.80;93.30;;;;;;5097106;28;20490;-68
2021/07/06 05:30:01;;;;;;;5.10;1.77;;;19.70;93.60;;;;;;5097228;28;20488;-68
2021/07/06 05:32:28;;;;;;;4.20;1.90;;;19.70;94.00;;;;;;5096773;28;20938;-68
2021/07/06 05:34:55;;;;;;;3.37;1.83;;;19.60;94.30;;;;;;5097299;28;20785;-67
2021/07/06 05:37:21;;;;;;;5.10;2.00;;;19.60;94.40;;;;;;5097033;28;20533;-67
2021/07/06 05:39:50;;;;;;;6.23;1.90;;;19.60;94.70;;;;;;5097029;28;20447;-68
2021/07/06 05:42:17;;;;;;;2.70;1.90;;;19.60;94.60;;;;;;5097033;28;20444;-68
2021/07/06 05:44:46;;;;;;;2.93;1.63;;;19.60;94.60;;;;;;5097018;28;20792;-68
2021/07/06 05:47:13;;;;;;;8.30;1.90;;;19.60;94.70;;;;;;5096669;28;20476;-68
2021/07/06 05:49:40;;;;;;;5.73;2.30;;;19.50;95.00;;;;;;5096940;28;20424;-68
2021/07/06 05:52:07;;;;;;;2.53;1.90;;;19.50;95.20;;;;;;5096693;28;20952;-68
2021/07/06 05:54:34;;;;;;;3.40;1.90;;;19.50;95.10;;;;;;5096779;28;20455;-68
2021/07/06 05:57:02;;;;;;;6.13;2.10;;;19.50;95.10;;;;;;5096666;28;20444;-68
2021/07/06 05:59:29;;;;;;;5.70;2.30;;;19.50;95.30;;;;;;5096767;28;20490;-68
2021/07/06 06:01:55;;;;;;;11.37;2.07;;;19.50;95.30;;;;;;5096549;28;20440;-68
2021/07/06 06:04:22;;;;;;;4.03;2.10;;;19.50;95.50;;;;;;5096614;28;20454;-68
2021/07/06 06:06:49;;;;;;;3.13;1.47;;;19.50;95.10;;;;;;5096578;28;20530;-68
2021/07/06 06:09:15;;;;;;;4.87;1.87;;;19.50;95.20;;;;;;5096254;28;20468;-68
2021/07/06 06:11:42;;;;;;;6.00;1.60;;;19.60;95.00;;;;;;5096537;28;20432;-68
2021/07/06 06:14:10;;;;;;;1.83;1.50;;;19.60;95.30;;;;;;5096192;28;20436;-68
2021/07/06 06:16:37;;;;;;;2.60;1.60;;;19.60;94.80;;;;;;5096434;28;20423;-68
2021/07/06 06:19:05;;;;;;;2.50;1.47;;;19.60;94.60;;;;;;5096310;28;20466;-68
2021/07/06 06:21:33;;;;;;;4.27;1.10;;;19.60;94.30;;;;;;5094953;28;20447;-69
2021/07/06 06:24:00;;;;;;;1.97;1.30;;;19.70;94.50;;;;;;5095923;28;20930;-69
2021/07/06 06:26:27;;;;;;;2.47;1.80;;;19.70;94.60;;;;;;5096250;28;20428;-69
2021/07/06 06:28:54;;;;;;;1.60;1.30;;;19.80;94.30;;;;;;5096841;28;20514;-69
2021/07/06 06:31:22;;;;;;;1.67;1.57;;;19.80;94.60;;;;;;5095790;28;20942;-69
2021/07/06 06:33:49;;;;;;;1.37;1.27;;;19.80;94.90;;;;;;5096015;28;20837;-69
2021/07/06 06:36:16;;;;;;;2.70;1.33;;;19.80;94.50;;;;;;5095889;28;20459;-69
2021/07/06 06:38:43;;;;;;;1.23;0.90;;;19.80;94.10;;;;;;5095555;28;21010;-69
2021/07/06 06:41:10;;;;;;;0.97;0.80;;;19.80;93.70;;;;;;5095817;28;20501;-69
2021/07/06 06:43:36;;;;;;;2.47;1.03;;;19.80;93.40;;;;;;5095433;28;20929;-69
2021/07/06 06:46:04;;;;;;;4.47;1.20;;;19.80;93.20;;;;;;5095806;28;20439;-69
2021/07/06 06:48:32;;;;;;;9.00;1.47;;;19.80;93.50;;;;;;5095792;28;20483;-69
2021/07/06 06:50:59;;;;;;;2.10;1.07;;;19.80;93.20;;;;;;5095683;28;20439;-69
2021/07/06 06:53:26;;;;;;;1.73;0.90;;;19.90;93.00;;;;;;5095268;28;20964;-69
2021/07/06 06:55:52;;;;;;;2.20;1.00;;;20.00;93.00;;;;;;5095602;28;20502;-69
2021/07/06 06:58:19;;;;;;;1.23;1.13;;;20.00;92.30;;;;;;5095139;28;20894;-69
2021/07/06 07:00:46;;;;;;;1.13;1.03;;;20.10;92.50;;;;;;5095173;28;20808;-69
2021/07/06 07:03:13;;;;;;;1.23;0.90;;;20.10;92.00;;;;;;5095456;28;20424;-69
2021/07/06 07:05:41;;;;;;;1.67;1.30;;;20.20;92.20;;;;;;5095379;28;20445;-69
2021/07/06 07:08:07;;;;;;;2.20;1.30;;;20.20;91.70;;;;;;5094915;28;20490;-69
2021/07/06 07:10:35;;;;;;;2.67;1.30;;;20.30;91.60;;;;;;5095074;28;20964;-69
2021/07/06 07:13:01;;;;;;;2.03;1.23;;;20.40;91.70;;;;;;5094953;28;20926;-69
2021/07/06 07:15:28;;;;;;;1.60;0.97;;;20.40;91.50;;;;;;5095209;28;20450;-69
2021/07/06 07:17:55;;;;;;;3.10;1.37;;;20.50;91.60;;;;;;5095143;28;20476;-69
2021/07/06 07:20:22;;;;;;;1.10;1.00;;;20.60;91.50;;;;;;5094878;28;20435;-70
2021/07/06 07:22:50;;;;;;;1.17;1.07;;;20.60;91.30;;;;;;5095058;28;20443;-69
2021/07/06 07:25:17;;;;;;;1.77;0.87;;;20.60;91.20;;;;;;5095008;28;20448;-69
2021/07/06 07:27:44;;;;;;;3.77;1.10;;;20.70;91.30;;;;;;5094832;28;20483;-69
2021/07/06 07:30:14;;;;;;;3.80;1.43;;;20.60;91.10;;;;;;5094935;28;20437;-69
2021/07/06 07:32:41;;;;;;;2.60;1.10;;;20.60;91.40;;;;;;5094512;28;20432;-69
2021/07/06 07:35:09;;;;;;;3.90;1.10;;;20.60;91.50;;;;;;5094646;28;20432;-70
2021/07/06 07:37:36;;;;;;;1.77;1.00;;;20.70;91.80;;;;;;5094779;28;20796;-70
2021/07/06 07:40:07;;;;;;;4.90;1.20;;;20.70;91.90;;;;;;5094723;28;20825;-69
2021/07/06 07:42:34;;;;;;;2.80;1.40;;;20.70;91.90;;;;;;5094624;28;20428;-69
2021/07/06 07:45:00;;;;;;;4.90;1.23;;;20.70;91.70;;;;;;5094332;28;20807;-70
2021/07/06 07:47:27;;;;;;;1.70;1.30;;;20.70;91.70;;;;;;5094540;28;20470;-69
2021/07/06 07:49:54;;;;;;;4.13;1.60;;;20.80;91.80;;;;;;5094691;28;20443;-69
2021/07/06 07:52:21;;;;;;;0.97;0.90;;;20.90;91.90;;;;;;5094561;28;20447;-69
2021/07/06 07:54:47;;;;;;;1.40;1.30;;;21.00;91.90;;;;;;5094502;28;20439;-69
2021/07/06 07:57:24;;;;;;;2.80;1.20;;;21.00;91.60;;;;;;5094020;28;20937;-69
2021/07/06 07:59:51;;;;;;;3.03;1.20;;;21.00;91.70;;;;;;5094429;28;20431;-69
2021/07/06 08:02:17;;;;;;;2.53;1.00;;;21.10;91.90;;;;;;5094292;28;20443;-69
2021/07/06 08:04:44;;;;;;;3.17;1.00;;;21.20;91.70;;;;;;5094193;28;20459;-69
2021/07/06 08:07:11;;;;;;;2.73;1.27;;;21.40;91.30;;;;;;5093919;28;20465;-69
2021/07/06 08:09:38;;;;;;;1.40;0.90;;;21.50;91.00;;;;;;5094065;28;20463;-69
2021/07/06 08:12:05;;;;;;;2.23;1.30;;;21.60;90.80;;;;;;5094133;28;20514;-69
2021/07/06 08:14:33;;;;;;;0.97;0.70;;;21.60;90.50;;;;;;5093801;28;20933;-69
2021/07/06 08:17:01;;;;;;;2.23;0.90;;;21.60;89.20;;;;;;5094098;28;20428;-69
2021/07/06 08:19:29;;;;;;;5.17;1.50;;;21.50;89.80;;;;;;5094017;28;20468;-69
2021/07/06 08:21:56;;;;;;;0.90;0.90;;;21.60;90.20;;;;;;5093658;28;20961;-69
2021/07/06 08:24:22;;;;;;;3.60;1.20;;;21.50;90.30;;;;;;5093642;28;20848;-69
2021/07/06 08:26:49;;;;;;;4.53;1.07;;;21.50;90.10;;;;;;5093574;28;20447;-69
2021/07/06 08:29:18;;;;;;;1.40;1.20;;;21.50;90.10;;;;;;5093552;28;21000;-69
2021/07/06 08:31:46;;;;;;;2.97;1.20;;;21.50;90.30;;;;;;5093892;28;20547;-69
2021/07/06 08:34:12;;;;;;;1.70;1.10;;;21.50;90.30;;;;;;5093856;28;20444;-69
2021/07/06 08:36:39;;;;;;;2.93;1.10;;;21.60;90.00;;;;;;5093893;28;20816;-69
2021/07/06 08:39:06;;;;;;;5.00;1.60;;;21.70;90.10;;;;;;5093514;28;20464;-69
2021/07/06 08:41:35;;;;;;;5.37;1.60;;;21.80;89.70;;;;;;5093905;28;20816;-69
2021/07/06 08:44:02;;;;;;;5.83;1.40;;;21.90;89.50;;;;;;5093082;28;20862;-69
2021/07/06 08:46:30;;;;;;;5.27;1.30;;;21.90;89.20;;;;;;5093910;28;20437;-70
2021/07/06 08:49:00;;;;;;;2.50;1.53;;;22.10;89.10;;;;;;5093750;28;20977;-70
2021/07/06 08:51:27;;;;;;;4.60;1.37;;;22.20;88.40;;;;;;5093657;28;20424;-70
2021/07/06 08:53:54;;;;;;;4.57;1.40;;;22.30;88.20;;;;;;5093629;28;20446;-70
2021/07/06 08:56:21;;;;;;;3.90;1.03;;;22.40;87.50;;;;;;5093791;28;20431;-70
2021/07/06 08:58:48;;;;;;;5.20;1.53;;;22.60;86.90;;;;;;5093810;28;20460;-70
2021/07/06 09:01:14;;;;;;;2.07;1.00;;;22.60;86.60;;;;;;5093710;28;20961;-70
2021/07/06 09:03:54;;;;;;;1.93;1.10;;;22.70;86.00;;;;;;5094023;28;20443;-69
2021/07/06 09:06:23;;;;;;;1.50;1.30;;;22.80;86.10;;;;;;5094027;28;20827;-69
2021/07/06 09:08:53;;;;;;;1.80;1.23;;;22.90;85.30;;;;;;5093497;28;20513;-69
2021/07/06 09:11:20;;;;;;;4.37;1.23;;;23.10;85.20;;;;;;5093864;28;20449;-69
2021/07/06 09:13:48;;;;;;;1.73;1.20;;;23.10;84.60;;;;;;5093961;28;20443;-69
2021/07/06 09:16:21;;;;;;;2.10;1.60;;;23.20;84.40;;;;;;5093665;28;20452;-69
2021/07/06 09:18:49;;;;;;;1.73;1.37;;;23.20;84.20;;;;;;5093654;28;20460;-69
2021/07/06 09:21:16;;;;;;;2.70;1.40;;;23.00;83.60;;;;;;5093812;28;20455;-69
2021/07/06 09:23:48;;;;;;;2.10;1.07;;;22.90;83.40;;;;;;5093267;28;21006;-69
2021/07/06 09:26:18;;;;;;;4.83;1.40;;;22.90;83.40;;;;;;5093639;28;20431;-69
2021/07/06 09:28:46;;;;;;;1.23;1.00;;;23.00;84.30;;;;;;5093253;28;20490;-69
2021/07/06 09:31:21;;;;;;;2.60;1.10;;;23.10;83.90;;;;;;5093383;28;20443;-70
2021/07/06 09:33:51;;;;;;;4.87;1.23;;;23.20;74.90;;;;;;5093387;28;20443;-70
2021/07/06 09:36:35;;;;;;;5.13;0.93;;;23.20;71.70;;;;;;5093060;28;20932;-70
2021/07/06 09:39:16;;;;;;;1.57;0.67;;;23.30;70.90;;;;;;5093257;28;20470;-70
2021/07/06 09:41:52;;;;;;;4.00;0.63;;;23.30;68.00;;;;;;5093039;28;20897;-70
2021/07/06 09:44:21;;;;;;;1.60;0.80;;;23.30;68.00;;;;;;5093260;28;20450;-70
2021/07/06 09:46:54;;;;;;;2.70;0.80;;;23.40;68.40;;;;;;5092834;28;20796;-70
2021/07/06 09:49:27;;;;;;;2.83;0.83;;;23.50;66.00;;;;;;5092769;28;20486;-70
2021/07/06 09:51:54;;;;;;;2.63;1.00;;;23.40;64.60;;;;;;5093212;28;20435;-70
2021/07/06 09:54:33;;;;;;;1.23;0.90;;;23.40;65.20;;;;;;5092724;28;20934;-70
2021/07/06 09:57:20;;;;;;;3.30;0.90;;;23.30;66.30;;;;;;5096108;28;20432;-70
2021/07/06 10:00:07;;;;;;;1.77;0.70;;;23.30;66.60;;;;;;5096815;28;20428;-70
2021/07/06 10:02:34;;;;;;;5.20;1.30;;;23.40;66.20;;;;;;5096322;28;20444;-70
2021/07/06 10:05:04;;;;;;;3.10;1.00;;;23.60;66.10;;;;;;5096636;28;20810;-70
2021/07/06 10:07:32;;;;;;;2.73;1.27;;;23.70;65.20;;;;;;5096290;28;20484;-70
2021/07/06 10:10:01;;;;;;;3.57;1.00;;;24.00;64.20;;;;;;5096405;28;20506;-70
2021/07/06 10:12:27;;;;;;;2.93;0.80;;;24.40;63.10;;;;;;5096544;28;20828;-70
2021/07/06 10:14:54;;;;;;;2.20;0.70;;;24.80;60.40;;;;;;5096435;28;20452;-70
2021/07/06 10:17:21;;;;;;;4.30;0.80;;;25.10;59.60;;;;;;5096231;28;20863;-69
2021/07/06 10:19:49;;;;;;;5.20;1.17;;;25.70;58.00;;;;;;5096252;28;20444;-69
2021/07/06 10:22:17;;;;;;;3.87;0.80;;;25.80;55.70;;;;;;5096228;28;20446;-70
2021/07/06 10:24:45;;;;;;;6.00;0.93;;;26.10;55.70;;;;;;5096144;28;20880;-70
2021/07/06 10:27:18;;;;;;;1.90;0.90;;;26.30;54.80;;;;;;5096090;28;20436;-70
2021/07/06 10:29:45;;;;;;;1.90;0.53;;;26.00;53.80;;;;;;5096030;28;20464;-70
2021/07/06 10:32:39;;;;;;;2.30;0.60;;;25.70;55.10;;;;;;5096024;28;20435;-70
2021/07/06 10:35:08;;;;;;;4.27;0.73;;;25.70;55.10;;;;;;5096059;28;20448;-70
2021/07/06 10:37:35;;;;;;;1.90;1.10;;;25.40;54.80;;;;;;5095539;28;20854;-70
2021/07/06 10:40:20;;;;;;;2.93;1.13;;;25.30;55.80;;;;;;5095851;28;20436;-70
2021/07/06 10:42:50;;;;;;;4.47;1.10;;;25.50;56.20;;;;;;5095863;28;20528;-70
2021/07/06 10:45:23;;;;;;;7.00;0.83;;;25.70;52.70;;;;;;5096632;28;20432;-70
2021/07/06 10:47:51;;;;;;;5.53;0.90;;;26.40;54.00;;;;;;5095694;28;20798;-70
2021/07/06 10:50:52;;;;;;;5.53;0.90;;;26.70;52.10;;;;;;5095633;28;20471;-70
2021/07/06 10:53:22;;;;;;;4.23;0.77;;;26.90;49.70;;;;;;5095668;28;20428;-70
2021/07/06 10:56:06;;;;;;;5.50;0.60;;;27.00;50.00;;;;;;5095606;28;20428;-70
2021/07/06 10:58:54;;;;;;;2.40;0.80;;;27.80;49.30;;;;;;5095487;28;20471;-70
2021/07/06 11:01:53;;;;;;;6.47;1.20;;;29.20;44.50;;;;;;5095747;28;20454;-70
2021/07/06 11:05:02;;;;;;;13.33;1.07;;;30.20;43.40;;;;;;5095380;28;20522;-70
2021/07/06 11:08:00;;;;;;;6.63;1.10;;;30.80;40.30;;;;;;5094406;28;20468;-70
2021/07/06 11:10:43;;;;;;;6.20;0.90;;;30.30;38.30;;;;;;5095247;28;20471;-70
2021/07/06 11:13:21;;;;;;;3.00;0.77;;;30.60;37.90;;;;;;5092730;28;20455;-70
2021/07/06 11:15:50;;;;;;;4.00;0.70;;;30.50;38.60;;;;;;5095210;28;20498;-70
2021/07/06 11:18:17;;;;;;;2.60;0.73;;;30.20;38.20;;;;;;5095609;28;20949;-70
2021/07/06 11:20:45;;;;;;;3.43;0.80;;;30.40;39.00;;;;;;5095012;28;20440;-70
2021/07/06 11:23:18;;;;;;;1.87;0.80;;;30.40;38.10;;;;;;5094987;28;20443;-70
2021/07/06 11:25:47;;;;;;;4.40;0.93;;;30.20;38.60;;;;;;5095088;28;20432;-70
2021/07/06 11:28:18;;;;;;;4.50;0.90;;;29.40;39.80;;;;;;5094923;28;20459;-70
2021/07/06 11:30:47;;;;;;;6.20;1.17;;;29.70;40.90;;;;;;5094958;28;20456;-70
2021/07/06 11:33:17;;;;;;;2.00;0.70;;;29.30;39.70;;;;;;5094870;28;20428;-70
2021/07/06 11:35:45;;;;;;;3.27;1.00;;;29.30;41.90;;;;;;5094804;28;20480;-70
2021/07/06 11:38:15;;;;;;;1.53;0.90;;;29.90;40.80;;;;;;5094772;28;20517;-70
2021/07/06 11:40:43;;;;;;;1.80;0.90;;;30.40;38.20;;;;;;5094411;28;20428;-70
2021/07/06 11:43:11;;;;;;;1.63;0.60;;;30.60;37.00;;;;;;5094691;28;20428;-70
2021/07/06 11:45:38;;;;;;;4.20;1.00;;;30.40;38.40;;;;;;5094574;28;20471;-70
2021/07/06 11:48:17;;;;;;;3.03;1.00;;;31.10;36.60;;;;;;5094572;28;20474;-70
2021/07/06 11:50:46;;;;;;;1.90;0.63;;;31.50;36.50;;;;;;5094460;28;20463;-70
2021/07/06 11:53:13;;;;;;;2.60;0.80;;;32.40;36.00;;;;;;5094492;28;20435;-70
2021/07/06 11:55:42;;;;;;;7.43;1.67;;;32.80;32.00;;;;;;5094547;28;20431;-70
2021/07/06 11:58:12;;;;;;;7.67;1.27;;;32.70;32.00;;;;;;5094303;28;20839;-70
2021/07/06 12:00:41;;;;;;;12.50;1.30;;;32.90;30.80;;;;;;5094077;28;20937;-70
2021/07/06 12:03:26;;;;;;;5.47;0.90;;;33.00;32.20;;;;;;5094244;28;20446;-70
2021/07/06 12:05:55;;;;;;;7.37;1.20;;;33.30;30.30;;;;;;5094249;28;20459;-70
2021/07/06 12:08:24;;;;;;;6.33;1.27;;;33.10;29.00;;;;;;5093756;28;20482;-70
2021/07/06 12:10:59;;;;;;;3.20;0.90;;;32.30;31.40;;;;;;5093748;28;20526;-70
2021/07/06 12:13:27;;;;;;;4.00;0.83;;;31.60;33.00;;;;;;5094165;28;20462;-70
2021/07/06 12:15:56;;;;;;;7.70;1.20;;;32.00;33.10;;;;;;5094070;28;20493;-70
2021/07/06 12:18:24;;;;;;;4.83;1.43;;;32.00;31.90;;;;;;5093786;28;20464;-70
2021/07/06 12:20:57;;;;;;;7.07;1.40;;;31.60;32.90;;;;;;5092983;28;20941;-70
2021/07/06 12:23:23;;;;;;;14.33;2.27;;;30.90;33.70;;;;;;5093901;28;20456;-70
2021/07/06 12:25:50;;;;;;;7.80;1.30;;;30.80;35.00;;;;;;5094373;28;20448;-70
2021/07/06 12:28:19;;;;;;;3.43;1.10;;;31.30;34.20;;;;;;5093825;28;20478;-70
2021/07/06 12:31:15;;;;;;;3.73;1.10;;;31.50;34.00;;;;;;5093743;28;20479;-70
2021/07/06 12:33:45;;;;;;;9.37;1.20;;;31.60;32.50;;;;;;5093531;28;20424;-70
2021/07/06 12:36:12;;;;;;;5.23;0.90;;;31.70;33.30;;;;;;5093748;28;20451;-70
2021/07/06 12:38:40;;;;;;;6.83;1.27;;;31.10;32.20;;;;;;5093683;28;20475;-70
2021/07/06 12:41:19;;;;;;;4.23;0.87;;;30.60;34.70;;;;;;5093756;28;20413;-70
2021/07/06 12:43:57;;;;;;;6.13;1.00;;;29.90;35.40;;;;;;5093715;28;20432;-70
2021/07/06 12:46:27;;;;;;;8.83;1.47;;;29.80;36.80;;;;;;5093619;28;20424;-70
2021/07/06 12:48:58;;;;;;;7.50;1.47;;;30.50;33.70;;;;;;5093429;28;20463;-70
2021/07/06 12:51:25;;;;;;;15.63;1.80;;;31.00;34.90;;;;;;5093612;28;20424;-70
2021/07/06 12:54:00;;;;;;;8.90;1.70;;;31.50;32.10;;;;;;5093558;28;20427;-70